sensor_id;sensor_type;location;lat;lon;timestamp;temperature;humidity
78902;DHT22;70441;44.758;37.686;2024-03-02T00:00:11;9.32;33.52
78902;DHT22;70441;44.758;37.686;2024-03-02T00:01:15;9.35;33.50
78902;DHT22;70441;44.758;37.686;2024-03-02T00:02:16;9.30;33.61
78902;DHT22;70441;44.758;37.686;2024-03-02T00:03:18;9.37;33.47
78902;DHT22;70441;44.758;37.686;2024-03-02T00:04:20;9.39;33.29
78902;DHT22;70441;44.758;37.686;2024-03-02T00:05:22;9.42;33.25
78902;DHT22;70441;44.758;37.686;2024-03-02T00:06:23;9.42;33.24
78902;DHT22;70441;44.758;37.686;2024-03-02T00:07:25;9.41;33.29
78902;DHT22;70441;44.758;37.686;2024-03-02T00:08:26;9.45;33.15
78902;DHT22;70441;44.758;37.686;2024-03-02T00:09:29;9.45;33.16
78902;DHT22;70441;44.758;37.686;2024-03-02T00:10:39;9.48;33.11
78902;DHT22;70441;44.758;37.686;2024-03-02T00:11:41;9.52;33.11
78902;DHT22;70441;44.758;37.686;2024-03-02T00:12:43;9.49;33.22
78902;DHT22;70441;44.758;37.686;2024-03-02T00:13:45;9.52;33.31
78902;DHT22;70441;44.758;37.686;2024-03-02T00:14:46;9.53;33.21
78902;DHT22;70441;44.758;37.686;2024-03-02T00:15:54;9.56;33.24
78902;DHT22;70441;44.758;37.686;2024-03-02T00:16:56;9.59;33.44
78902;DHT22;70441;44.758;37.686;2024-03-02T00:17:58;9.62;33.49
78902;DHT22;70441;44.758;37.686;2024-03-02T00:19:03;9.61;33.54
78902;DHT22;70441;44.758;37.686;2024-03-02T00:20:09;9.58;33.56
78902;DHT22;70441;44.758;37.686;2024-03-02T00:21:11;9.62;33.58
78902;DHT22;70441;44.758;37.686;2024-03-02T00:22:15;9.59;33.59
78902;DHT22;70441;44.758;37.686;2024-03-02T00:23:17;9.59;33.71
78902;DHT22;70441;44.758;37.686;2024-03-02T00:24:34;9.62;33.90
78902;DHT22;70441;44.758;37.686;2024-03-02T00:25:44;9.52;33.99
78902;DHT22;70441;44.758;37.686;2024-03-02T00:26:46;9.48;34.10
78902;DHT22;70441;44.758;37.686;2024-03-02T00:27:48;9.45;34.14
78902;DHT22;70441;44.758;37.686;2024-03-02T00:28:54;9.48;34.22
78902;DHT22;70441;44.758;37.686;2024-03-02T00:29:57;9.52;34.40
78902;DHT22;70441;44.758;37.686;2024-03-02T00:31:02;9.48;34.41
78902;DHT22;70441;44.758;37.686;2024-03-02T00:32:12;9.48;34.21
78902;DHT22;70441;44.758;37.686;2024-03-02T00:33:14;9.49;34.11
78902;DHT22;70441;44.758;37.686;2024-03-02T00:34:17;9.53;34.08
78902;DHT22;70441;44.758;37.686;2024-03-02T00:35:19;9.52;33.99
78902;DHT22;70441;44.758;37.686;2024-03-02T00:36:25;9.56;33.84
78902;DHT22;70441;44.758;37.686;2024-03-02T00:37:28;9.52;33.82
78902;DHT22;70441;44.758;37.686;2024-03-02T00:38:31;9.46;33.93
78902;DHT22;70441;44.758;37.686;2024-03-02T00:39:32;9.44;34.19
78902;DHT22;70441;44.758;37.686;2024-03-02T00:40:34;9.35;34.50
78902;DHT22;70441;44.758;37.686;2024-03-02T00:41:35;9.28;34.38
78902;DHT22;70441;44.758;37.686;2024-03-02T00:42:37;9.26;34.35
78902;DHT22;70441;44.758;37.686;2024-03-02T00:44:59;9.13;34.27
78902;DHT22;70441;44.758;37.686;2024-03-02T00:46:00;9.06;34.25
78902;DHT22;70441;44.758;37.686;2024-03-02T00:47:01;9.07;34.10
78902;DHT22;70441;44.758;37.686;2024-03-02T00:48:03;9.03;34.19
78902;DHT22;70441;44.758;37.686;2024-03-02T00:49:26;9.00;34.61
78902;DHT22;70441;44.758;37.686;2024-03-02T00:50:29;8.93;34.58
78902;DHT22;70441;44.758;37.686;2024-03-02T00:51:32;8.90;34.38
78902;DHT22;70441;44.758;37.686;2024-03-02T00:52:33;8.94;34.54
78902;DHT22;70441;44.758;37.686;2024-03-02T00:53:35;8.99;34.41
78902;DHT22;70441;44.758;37.686;2024-03-02T00:54:37;9.07;34.25
78902;DHT22;70441;44.758;37.686;2024-03-02T00:55:39;9.11;33.94
78902;DHT22;70441;44.758;37.686;2024-03-02T00:56:45;9.20;33.21
78902;DHT22;70441;44.758;37.686;2024-03-02T00:57:48;9.34;32.53
78902;DHT22;70441;44.758;37.686;2024-03-02T00:58:50;9.44;31.81
78902;DHT22;70441;44.758;37.686;2024-03-02T00:59:51;9.49;31.73
78902;DHT22;70441;44.758;37.686;2024-03-02T01:00:53;9.51;32.25
78902;DHT22;70441;44.758;37.686;2024-03-02T01:01:54;9.42;32.08
78902;DHT22;70441;44.758;37.686;2024-03-02T01:02:55;9.34;32.16
78902;DHT22;70441;44.758;37.686;2024-03-02T01:03:57;9.32;31.34
78902;DHT22;70441;44.758;37.686;2024-03-02T01:04:58;9.35;31.19
78902;DHT22;70441;44.758;37.686;2024-03-02T01:06:00;9.39;31.08
78902;DHT22;70441;44.758;37.686;2024-03-02T01:07:01;9.38;30.90
78902;DHT22;70441;44.758;37.686;2024-03-02T01:08:03;9.38;30.34
78902;DHT22;70441;44.758;37.686;2024-03-02T01:09:04;9.41;30.18
78902;DHT22;70441;44.758;37.686;2024-03-02T01:10:06;9.42;29.83
78902;DHT22;70441;44.758;37.686;2024-03-02T01:11:07;9.45;29.85
78902;DHT22;70441;44.758;37.686;2024-03-02T01:12:09;9.48;29.45
78902;DHT22;70441;44.758;37.686;2024-03-02T01:13:10;9.56;29.18
78902;DHT22;70441;44.758;37.686;2024-03-02T01:14:12;9.53;29.11
78902;DHT22;70441;44.758;37.686;2024-03-02T01:15:13;9.56;28.64
78902;DHT22;70441;44.758;37.686;2024-03-02T01:16:15;9.59;28.73
78902;DHT22;70441;44.758;37.686;2024-03-02T01:17:16;9.59;28.52
78902;DHT22;70441;44.758;37.686;2024-03-02T01:18:18;9.62;28.10
78902;DHT22;70441;44.758;37.686;2024-03-02T01:19:19;9.61;28.20
78902;DHT22;70441;44.758;37.686;2024-03-02T01:20:21;9.63;28.06
78902;DHT22;70441;44.758;37.686;2024-03-02T01:21:22;9.65;28.04
78902;DHT22;70441;44.758;37.686;2024-03-02T01:22:24;9.62;28.18
78902;DHT22;70441;44.758;37.686;2024-03-02T01:23:26;9.58;28.20
78902;DHT22;70441;44.758;37.686;2024-03-02T01:24:27;9.56;28.00
78902;DHT22;70441;44.758;37.686;2024-03-02T01:25:29;9.58;28.28
78902;DHT22;70441;44.758;37.686;2024-03-02T01:26:30;9.55;27.89
78902;DHT22;70441;44.758;37.686;2024-03-02T01:27:32;9.58;28.19
78902;DHT22;70441;44.758;37.686;2024-03-02T01:28:33;9.53;28.53
78902;DHT22;70441;44.758;37.686;2024-03-02T01:29:34;9.51;28.02
78902;DHT22;70441;44.758;37.686;2024-03-02T01:30:36;9.52;27.75
78902;DHT22;70441;44.758;37.686;2024-03-02T01:31:37;9.55;27.83
78902;DHT22;70441;44.758;37.686;2024-03-02T01:32:38;9.56;28.01
78902;DHT22;70441;44.758;37.686;2024-03-02T01:33:40;9.56;27.76
78902;DHT22;70441;44.758;37.686;2024-03-02T01:34:41;9.59;27.65
78902;DHT22;70441;44.758;37.686;2024-03-02T01:35:42;9.62;27.51
78902;DHT22;70441;44.758;37.686;2024-03-02T01:36:44;9.62;27.63
78902;DHT22;70441;44.758;37.686;2024-03-02T01:37:45;9.63;27.54
78902;DHT22;70441;44.758;37.686;2024-03-02T01:38:46;9.65;27.73
78902;DHT22;70441;44.758;37.686;2024-03-02T01:39:48;9.59;27.67
78902;DHT22;70441;44.758;37.686;2024-03-02T01:40:49;9.56;27.75
78902;DHT22;70441;44.758;37.686;2024-03-02T01:41:51;9.59;27.78
78902;DHT22;70441;44.758;37.686;2024-03-02T01:42:53;9.56;27.79
78902;DHT22;70441;44.758;37.686;2024-03-02T01:43:55;9.55;27.87
78902;DHT22;70441;44.758;37.686;2024-03-02T01:44:56;9.58;27.78
78902;DHT22;70441;44.758;37.686;2024-03-02T01:45:58;9.59;27.79
78902;DHT22;70441;44.758;37.686;2024-03-02T01:46:59;9.56;27.79
78902;DHT22;70441;44.758;37.686;2024-03-02T01:48:02;9.61;28.08
78902;DHT22;70441;44.758;37.686;2024-03-02T01:49:04;9.56;28.12
78902;DHT22;70441;44.758;37.686;2024-03-02T01:50:05;9.52;28.08
78902;DHT22;70441;44.758;37.686;2024-03-02T01:51:08;9.52;28.34
78902;DHT22;70441;44.758;37.686;2024-03-02T01:52:09;9.49;28.43
78902;DHT22;70441;44.758;37.686;2024-03-02T01:53:12;9.53;28.28
78902;DHT22;70441;44.758;37.686;2024-03-02T01:54:13;9.51;28.33
78902;DHT22;70441;44.758;37.686;2024-03-02T01:55:15;9.49;28.47
78902;DHT22;70441;44.758;37.686;2024-03-02T01:56:16;9.49;28.64
78902;DHT22;70441;44.758;37.686;2024-03-02T01:57:18;9.45;28.69
78902;DHT22;70441;44.758;37.686;2024-03-02T01:58:19;9.46;28.61
78902;DHT22;70441;44.758;37.686;2024-03-02T01:59:21;9.48;28.76
78902;DHT22;70441;44.758;37.686;2024-03-02T02:00:23;9.44;29.04
78902;DHT22;70441;44.758;37.686;2024-03-02T02:01:27;9.44;29.19
78902;DHT22;70441;44.758;37.686;2024-03-02T02:02:28;9.42;29.27
78902;DHT22;70441;44.758;37.686;2024-03-02T02:03:30;9.39;29.30
78902;DHT22;70441;44.758;37.686;2024-03-02T02:04:31;9.39;29.55
78902;DHT22;70441;44.758;37.686;2024-03-02T02:05:34;9.34;29.78
78902;DHT22;70441;44.758;37.686;2024-03-02T02:06:36;9.27;29.86
78902;DHT22;70441;44.758;37.686;2024-03-02T02:07:37;9.26;30.19
78902;DHT22;70441;44.758;37.686;2024-03-02T02:08:38;9.23;30.44
78902;DHT22;70441;44.758;37.686;2024-03-02T02:09:41;9.23;30.81
78902;DHT22;70441;44.758;37.686;2024-03-02T02:10:43;9.20;31.01
78902;DHT22;70441;44.758;37.686;2024-03-02T02:11:44;9.16;31.05
78902;DHT22;70441;44.758;37.686;2024-03-02T02:12:46;9.13;31.43
78902;DHT22;70441;44.758;37.686;2024-03-02T02:13:47;9.11;31.78
78902;DHT22;70441;44.758;37.686;2024-03-02T02:14:49;9.07;32.09
78902;DHT22;70441;44.758;37.686;2024-03-02T02:15:51;9.03;32.42
78902;DHT22;70441;44.758;37.686;2024-03-02T02:16:53;8.99;32.57
78902;DHT22;70441;44.758;37.686;2024-03-02T02:17:56;8.97;32.46
78902;DHT22;70441;44.758;37.686;2024-03-02T02:18:58;8.94;32.87
78902;DHT22;70441;44.758;37.686;2024-03-02T02:19:59;8.92;32.98
78902;DHT22;70441;44.758;37.686;2024-03-02T02:21:01;8.87;33.43
78902;DHT22;70441;44.758;37.686;2024-03-02T02:22:03;8.83;33.35
78902;DHT22;70441;44.758;37.686;2024-03-02T02:23:04;8.83;33.49
78902;DHT22;70441;44.758;37.686;2024-03-02T02:24:13;8.79;33.84
78902;DHT22;70441;44.758;37.686;2024-03-02T02:25:14;8.78;34.04
78902;DHT22;70441;44.758;37.686;2024-03-02T02:26:15;8.72;34.33
78902;DHT22;70441;44.758;37.686;2024-03-02T02:27:17;8.68;34.40
78902;DHT22;70441;44.758;37.686;2024-03-02T02:28:18;8.65;34.58
78902;DHT22;70441;44.758;37.686;2024-03-02T02:29:19;8.61;34.99
78902;DHT22;70441;44.758;37.686;2024-03-02T02:30:31;8.57;34.99
78902;DHT22;70441;44.758;37.686;2024-03-02T02:31:42;8.54;35.29
78902;DHT22;70441;44.758;37.686;2024-03-02T02:32:44;8.50;35.43
78902;DHT22;70441;44.758;37.686;2024-03-02T02:33:49;8.48;35.57
78902;DHT22;70441;44.758;37.686;2024-03-02T02:34:53;8.47;35.69
78902;DHT22;70441;44.758;37.686;2024-03-02T02:35:54;8.44;35.75
78902;DHT22;70441;44.758;37.686;2024-03-02T02:36:56;8.40;36.09
78902;DHT22;70441;44.758;37.686;2024-03-02T02:37:58;8.41;36.38
78902;DHT22;70441;44.758;37.686;2024-03-02T02:39:05;8.37;36.62
78902;DHT22;70441;44.758;37.686;2024-03-02T02:40:08;8.33;37.05
78902;DHT22;70441;44.758;37.686;2024-03-02T02:41:10;8.29;37.24
78902;DHT22;70441;44.758;37.686;2024-03-02T02:42:13;8.26;37.52
78902;DHT22;70441;44.758;37.686;2024-03-02T02:43:14;8.16;37.73
78902;DHT22;70441;44.758;37.686;2024-03-02T02:44:15;8.14;38.10
78902;DHT22;70441;44.758;37.686;2024-03-02T02:45:17;8.14;38.29
78902;DHT22;70441;44.758;37.686;2024-03-02T02:46:19;8.10;38.51
78902;DHT22;70441;44.758;37.686;2024-03-02T02:47:20;8.09;38.82
78902;DHT22;70441;44.758;37.686;2024-03-02T02:48:21;8.05;39.03
78902;DHT22;70441;44.758;37.686;2024-03-02T02:49:23;8.01;39.44
78902;DHT22;70441;44.758;37.686;2024-03-02T02:50:24;7.99;39.92
78902;DHT22;70441;44.758;37.686;2024-03-02T02:51:26;7.98;39.94
78902;DHT22;70441;44.758;37.686;2024-03-02T02:52:31;7.93;40.29
78902;DHT22;70441;44.758;37.686;2024-03-02T02:53:34;7.95;40.61
78902;DHT22;70441;44.758;37.686;2024-03-02T02:54:37;7.88;40.66
78902;DHT22;70441;44.758;37.686;2024-03-02T02:55:41;7.86;40.91
78902;DHT22;70441;44.758;37.686;2024-03-02T02:56:44;7.88;41.22
78902;DHT22;70441;44.758;37.686;2024-03-02T02:57:46;7.89;41.03
78902;DHT22;70441;44.758;37.686;2024-03-02T02:58:48;7.88;40.98
78902;DHT22;70441;44.758;37.686;2024-03-02T02:59:49;7.88;40.98
78902;DHT22;70441;44.758;37.686;2024-03-02T03:00:50;7.88;40.88
78902;DHT22;70441;44.758;37.686;2024-03-02T03:01:52;7.89;41.00
78902;DHT22;70441;44.758;37.686;2024-03-02T03:02:54;7.85;41.23
78902;DHT22;70441;44.758;37.686;2024-03-02T03:03:55;7.86;41.20
78902;DHT22;70441;44.758;37.686;2024-03-02T03:04:57;7.85;41.33
78902;DHT22;70441;44.758;37.686;2024-03-02T03:05:58;7.85;41.25
78902;DHT22;70441;44.758;37.686;2024-03-02T03:06:59;7.85;41.43
78902;DHT22;70441;44.758;37.686;2024-03-02T03:08:01;7.86;41.53
78902;DHT22;70441;44.758;37.686;2024-03-02T03:09:03;7.86;41.57
78902;DHT22;70441;44.758;37.686;2024-03-02T03:10:05;7.82;41.44
78902;DHT22;70441;44.758;37.686;2024-03-02T03:11:07;7.84;41.55
78902;DHT22;70441;44.758;37.686;2024-03-02T03:12:09;7.82;41.50
78902;DHT22;70441;44.758;37.686;2024-03-02T03:13:10;7.84;41.66
78902;DHT22;70441;44.758;37.686;2024-03-02T03:14:12;7.86;41.72
78902;DHT22;70441;44.758;37.686;2024-03-02T03:15:13;7.85;41.82
78902;DHT22;70441;44.758;37.686;2024-03-02T03:16:15;7.82;42.02
78902;DHT22;70441;44.758;37.686;2024-03-02T03:17:17;7.78;42.33
78902;DHT22;70441;44.758;37.686;2024-03-02T03:18:19;7.77;42.59
78902;DHT22;70441;44.758;37.686;2024-03-02T03:19:20;7.75;42.69
78902;DHT22;70441;44.758;37.686;2024-03-02T03:20:21;7.75;42.76
78902;DHT22;70441;44.758;37.686;2024-03-02T03:21:25;7.74;42.84
78902;DHT22;70441;44.758;37.686;2024-03-02T03:22:26;7.73;42.90
78902;DHT22;70441;44.758;37.686;2024-03-02T03:23:28;7.73;42.89
78902;DHT22;70441;44.758;37.686;2024-03-02T03:24:29;7.74;42.94
78902;DHT22;70441;44.758;37.686;2024-03-02T03:25:31;7.73;42.89
78902;DHT22;70441;44.758;37.686;2024-03-02T03:26:35;7.74;42.89
78902;DHT22;70441;44.758;37.686;2024-03-02T03:27:37;7.78;42.77
78902;DHT22;70441;44.758;37.686;2024-03-02T03:28:39;7.78;42.86
78902;DHT22;70441;44.758;37.686;2024-03-02T03:29:40;7.77;42.97
78902;DHT22;70441;44.758;37.686;2024-03-02T03:30:42;7.73;42.92
78902;DHT22;70441;44.758;37.686;2024-03-02T03:31:44;7.75;42.88
78902;DHT22;70441;44.758;37.686;2024-03-02T03:32:45;7.75;42.87
78902;DHT22;70441;44.758;37.686;2024-03-02T03:33:46;7.77;42.84
78902;DHT22;70441;44.758;37.686;2024-03-02T03:34:48;7.77;42.87
78902;DHT22;70441;44.758;37.686;2024-03-02T03:35:49;7.78;42.78
78902;DHT22;70441;44.758;37.686;2024-03-02T03:36:51;7.78;42.87
78902;DHT22;70441;44.758;37.686;2024-03-02T03:37:52;7.75;42.93
78902;DHT22;70441;44.758;37.686;2024-03-02T03:38:53;7.74;43.00
78902;DHT22;70441;44.758;37.686;2024-03-02T03:39:55;7.74;43.03
78902;DHT22;70441;44.758;37.686;2024-03-02T03:40:56;7.77;43.02
78902;DHT22;70441;44.758;37.686;2024-03-02T03:41:58;7.78;42.99
78902;DHT22;70441;44.758;37.686;2024-03-02T03:42:59;7.77;42.92
78902;DHT22;70441;44.758;37.686;2024-03-02T03:44:01;7.78;42.97
78902;DHT22;70441;44.758;37.686;2024-03-02T03:45:03;7.78;43.11
78902;DHT22;70441;44.758;37.686;2024-03-02T03:46:05;7.74;43.12
78902;DHT22;70441;44.758;37.686;2024-03-02T03:47:06;7.73;43.16
78902;DHT22;70441;44.758;37.686;2024-03-02T03:48:07;7.74;43.23
78902;DHT22;70441;44.758;37.686;2024-03-02T03:49:09;7.73;43.18
78902;DHT22;70441;44.758;37.686;2024-03-02T03:50:10;7.75;43.20
78902;DHT22;70441;44.758;37.686;2024-03-02T03:51:13;7.77;43.36
78902;DHT22;70441;44.758;37.686;2024-03-02T03:52:15;7.74;43.38
78902;DHT22;70441;44.758;37.686;2024-03-02T03:53:16;7.73;43.45
78902;DHT22;70441;44.758;37.686;2024-03-02T03:54:17;7.71;43.62
78902;DHT22;70441;44.758;37.686;2024-03-02T03:55:19;7.71;43.46
78902;DHT22;70441;44.758;37.686;2024-03-02T03:56:20;7.71;43.39
78902;DHT22;70441;44.758;37.686;2024-03-02T03:57:21;7.71;43.57
78902;DHT22;70441;44.758;37.686;2024-03-02T03:58:22;7.75;43.60
78902;DHT22;70441;44.758;37.686;2024-03-02T03:59:24;7.75;43.58
78902;DHT22;70441;44.758;37.686;2024-03-02T04:00:25;7.74;43.71
78902;DHT22;70441;44.758;37.686;2024-03-02T04:01:27;7.71;43.89
78902;DHT22;70441;44.758;37.686;2024-03-02T04:02:28;7.71;43.85
78902;DHT22;70441;44.758;37.686;2024-03-02T04:03:29;7.74;43.80
78902;DHT22;70441;44.758;37.686;2024-03-02T04:04:31;7.74;43.72
78902;DHT22;70441;44.758;37.686;2024-03-02T04:05:34;7.75;43.63
78902;DHT22;70441;44.758;37.686;2024-03-02T04:06:36;7.78;43.52
78902;DHT22;70441;44.758;37.686;2024-03-02T04:07:37;7.79;43.55
78902;DHT22;70441;44.758;37.686;2024-03-02T04:08:41;7.85;43.40
78902;DHT22;70441;44.758;37.686;2024-03-02T04:09:43;7.88;43.16
78902;DHT22;70441;44.758;37.686;2024-03-02T04:10:44;7.91;42.94
78902;DHT22;70441;44.758;37.686;2024-03-02T04:11:46;7.89;43.02
78902;DHT22;70441;44.758;37.686;2024-03-02T04:12:49;7.89;42.96
78902;DHT22;70441;44.758;37.686;2024-03-02T04:13:51;7.91;42.93
78902;DHT22;70441;44.758;37.686;2024-03-02T04:14:52;7.88;42.97
78902;DHT22;70441;44.758;37.686;2024-03-02T04:15:54;7.88;42.61
78902;DHT22;70441;44.758;37.686;2024-03-02T04:16:55;7.92;42.68
78902;DHT22;70441;44.758;37.686;2024-03-02T04:17:56;7.92;42.79
78902;DHT22;70441;44.758;37.686;2024-03-02T04:18:58;7.96;42.41
78902;DHT22;70441;44.758;37.686;2024-03-02T04:19:59;7.93;42.34
78902;DHT22;70441;44.758;37.686;2024-03-02T04:21:01;7.96;42.39
78902;DHT22;70441;44.758;37.686;2024-03-02T04:22:02;7.99;42.08
78902;DHT22;70441;44.758;37.686;2024-03-02T04:23:04;8.02;41.98
78902;DHT22;70441;44.758;37.686;2024-03-02T04:24:05;8.03;42.03
78902;DHT22;70441;44.758;37.686;2024-03-02T04:25:07;8.03;42.06
78902;DHT22;70441;44.758;37.686;2024-03-02T04:26:08;8.02;42.10
78902;DHT22;70441;44.758;37.686;2024-03-02T04:27:09;8.02;42.04
78902;DHT22;70441;44.758;37.686;2024-03-02T04:28:11;8.05;41.93
78902;DHT22;70441;44.758;37.686;2024-03-02T04:29:13;8.05;41.83
78902;DHT22;70441;44.758;37.686;2024-03-02T04:30:15;8.07;41.80
78902;DHT22;70441;44.758;37.686;2024-03-02T04:31:16;8.09;42.05
78902;DHT22;70441;44.758;37.686;2024-03-02T04:32:17;8.09;41.99
78902;DHT22;70441;44.758;37.686;2024-03-02T04:33:20;8.09;41.82
78902;DHT22;70441;44.758;37.686;2024-03-02T04:34:21;8.10;41.89
78902;DHT22;70441;44.758;37.686;2024-03-02T04:35:23;8.07;41.82
78902;DHT22;70441;44.758;37.686;2024-03-02T04:36:24;8.10;41.87
78902;DHT22;70441;44.758;37.686;2024-03-02T04:37:26;8.09;42.00
78902;DHT22;70441;44.758;37.686;2024-03-02T04:38:27;8.12;41.62
78902;DHT22;70441;44.758;37.686;2024-03-02T04:39:29;8.17;41.61
78902;DHT22;70441;44.758;37.686;2024-03-02T04:40:30;8.16;41.47
78902;DHT22;70441;44.758;37.686;2024-03-02T04:41:33;8.19;41.56
78902;DHT22;70441;44.758;37.686;2024-03-02T04:42:35;8.23;41.58
78902;DHT22;70441;44.758;37.686;2024-03-02T04:43:36;8.20;41.62
78902;DHT22;70441;44.758;37.686;2024-03-02T04:44:38;8.22;41.68
78902;DHT22;70441;44.758;37.686;2024-03-02T04:45:39;8.20;41.58
78902;DHT22;70441;44.758;37.686;2024-03-02T04:46:40;8.26;41.23
78902;DHT22;70441;44.758;37.686;2024-03-02T04:47:41;8.29;41.36
78902;DHT22;70441;44.758;37.686;2024-03-02T04:48:43;8.30;41.18
78902;DHT22;70441;44.758;37.686;2024-03-02T04:49:45;8.33;41.06
78902;DHT22;70441;44.758;37.686;2024-03-02T04:50:47;8.36;40.83
78902;DHT22;70441;44.758;37.686;2024-03-02T04:51:48;8.40;40.72
78902;DHT22;70441;44.758;37.686;2024-03-02T04:52:49;8.43;40.86
78902;DHT22;70441;44.758;37.686;2024-03-02T04:53:51;8.44;40.80
78902;DHT22;70441;44.758;37.686;2024-03-02T04:54:52;8.44;40.45
78902;DHT22;70441;44.758;37.686;2024-03-02T04:56:13;8.52;40.79
78902;DHT22;70441;44.758;37.686;2024-03-02T04:57:32;8.54;40.32
78902;DHT22;70441;44.758;37.686;2024-03-02T04:58:33;8.54;40.50
78902;DHT22;70441;44.758;37.686;2024-03-02T04:59:35;8.58;40.03
78902;DHT22;70441;44.758;37.686;2024-03-02T05:00:36;8.64;40.01
78902;DHT22;70441;44.758;37.686;2024-03-02T05:01:37;8.68;40.06
78902;DHT22;70441;44.758;37.686;2024-03-02T05:02:39;8.69;40.29
78902;DHT22;70441;44.758;37.686;2024-03-02T05:03:40;8.72;39.84
78902;DHT22;70441;44.758;37.686;2024-03-02T05:04:41;8.79;39.64
78902;DHT22;70441;44.758;37.686;2024-03-02T05:05:43;8.86;39.57
78902;DHT22;70441;44.758;37.686;2024-03-02T05:06:45;8.86;39.28
78902;DHT22;70441;44.758;37.686;2024-03-02T05:07:53;8.89;39.60
78902;DHT22;70441;44.758;37.686;2024-03-02T05:08:54;8.87;39.55
78902;DHT22;70441;44.758;37.686;2024-03-02T05:09:56;8.94;39.45
78902;DHT22;70441;44.758;37.686;2024-03-02T05:10:57;9.02;38.89
78902;DHT22;70441;44.758;37.686;2024-03-02T05:12:19;9.03;39.47
78902;DHT22;70441;44.758;37.686;2024-03-02T05:13:40;9.10;39.09
78902;DHT22;70441;44.758;37.686;2024-03-02T05:14:41;9.11;39.09
78902;DHT22;70441;44.758;37.686;2024-03-02T05:15:42;9.13;39.32
78902;DHT22;70441;44.758;37.686;2024-03-02T05:16:44;9.17;39.18
78902;DHT22;70441;44.758;37.686;2024-03-02T05:17:46;9.23;39.01
78902;DHT22;70441;44.758;37.686;2024-03-02T05:18:47;9.26;39.17
78902;DHT22;70441;44.758;37.686;2024-03-02T05:19:48;9.30;38.94
78902;DHT22;70441;44.758;37.686;2024-03-02T05:20:50;9.31;38.94
78902;DHT22;70441;44.758;37.686;2024-03-02T05:21:51;9.38;39.15
78902;DHT22;70441;44.758;37.686;2024-03-02T05:22:52;9.39;38.91
78902;DHT22;70441;44.758;37.686;2024-03-02T05:23:54;9.42;38.74
78902;DHT22;70441;44.758;37.686;2024-03-02T05:24:55;9.46;38.34
78902;DHT22;70441;44.758;37.686;2024-03-02T05:25:57;9.51;38.29
78902;DHT22;70441;44.758;37.686;2024-03-02T05:26:58;9.55;37.89
78902;DHT22;70441;44.758;37.686;2024-03-02T05:28:00;9.59;38.74
78902;DHT22;70441;44.758;37.686;2024-03-02T05:29:02;9.69;38.92
78902;DHT22;70441;44.758;37.686;2024-03-02T05:30:04;9.73;38.02
78902;DHT22;70441;44.758;37.686;2024-03-02T05:31:10;9.82;38.12
78902;DHT22;70441;44.758;37.686;2024-03-02T05:32:12;9.90;38.15
78902;DHT22;70441;44.758;37.686;2024-03-02T05:33:14;9.94;37.70
78902;DHT22;70441;44.758;37.686;2024-03-02T05:34:15;9.97;37.22
78902;DHT22;70441;44.758;37.686;2024-03-02T05:35:17;10.04;37.52
78902;DHT22;70441;44.758;37.686;2024-03-02T05:36:18;10.07;37.95
78902;DHT22;70441;44.758;37.686;2024-03-02T05:37:19;10.11;37.67
78902;DHT22;70441;44.758;37.686;2024-03-02T05:38:21;10.17;37.47
78902;DHT22;70441;44.758;37.686;2024-03-02T05:39:23;10.22;37.38
78902;DHT22;70441;44.758;37.686;2024-03-02T05:40:24;10.27;37.10
78902;DHT22;70441;44.758;37.686;2024-03-02T05:41:25;10.25;37.01
78902;DHT22;70441;44.758;37.686;2024-03-02T05:42:27;10.28;37.84
78902;DHT22;70441;44.758;37.686;2024-03-02T05:43:28;10.35;37.36
78902;DHT22;70441;44.758;37.686;2024-03-02T05:44:30;10.41;37.39
78902;DHT22;70441;44.758;37.686;2024-03-02T05:45:31;10.50;36.74
78902;DHT22;70441;44.758;37.686;2024-03-02T05:46:32;10.59;36.59
78902;DHT22;70441;44.758;37.686;2024-03-02T05:47:34;10.74;36.26
78902;DHT22;70441;44.758;37.686;2024-03-02T05:48:36;10.87;36.42
78902;DHT22;70441;44.758;37.686;2024-03-02T05:49:37;11.03;36.18
78902;DHT22;70441;44.758;37.686;2024-03-02T05:50:39;11.14;36.05
78902;DHT22;70441;44.758;37.686;2024-03-02T05:51:40;11.23;35.68
78902;DHT22;70441;44.758;37.686;2024-03-02T05:52:42;11.33;34.68
78902;DHT22;70441;44.758;37.686;2024-03-02T05:53:44;11.42;34.74
78902;DHT22;70441;44.758;37.686;2024-03-02T05:54:45;11.52;34.65
78902;DHT22;70441;44.758;37.686;2024-03-02T05:55:46;11.60;34.70
78902;DHT22;70441;44.758;37.686;2024-03-02T05:56:48;11.60;34.81
78902;DHT22;70441;44.758;37.686;2024-03-02T05:57:49;11.62;35.03
78902;DHT22;70441;44.758;37.686;2024-03-02T05:59:09;11.57;34.60
78902;DHT22;70441;44.758;37.686;2024-03-02T06:00:17;11.60;34.73
78902;DHT22;70441;44.758;37.686;2024-03-02T06:01:19;11.54;34.89
78902;DHT22;70441;44.758;37.686;2024-03-02T06:02:22;11.57;34.61
78902;DHT22;70441;44.758;37.686;2024-03-02T06:03:23;11.56;34.46
78902;DHT22;70441;44.758;37.686;2024-03-02T06:04:24;11.56;34.40
78902;DHT22;70441;44.758;37.686;2024-03-02T06:05:26;11.59;34.33
78902;DHT22;70441;44.758;37.686;2024-03-02T06:06:27;11.62;34.29
78902;DHT22;70441;44.758;37.686;2024-03-02T06:07:29;11.69;34.86
78902;DHT22;70441;44.758;37.686;2024-03-02T06:08:30;11.77;33.80
78902;DHT22;70441;44.758;37.686;2024-03-02T06:09:32;11.89;32.99
78902;DHT22;70441;44.758;37.686;2024-03-02T06:10:33;11.99;32.59
78902;DHT22;70441;44.758;37.686;2024-03-02T06:11:35;12.05;33.38
78902;DHT22;70441;44.758;37.686;2024-03-02T06:12:37;12.11;33.58
78902;DHT22;70441;44.758;37.686;2024-03-02T06:13:38;12.21;33.39
78902;DHT22;70441;44.758;37.686;2024-03-02T06:14:40;12.19;33.76
78902;DHT22;70441;44.758;37.686;2024-03-02T06:15:41;12.26;33.19
78902;DHT22;70441;44.758;37.686;2024-03-02T06:16:42;12.33;32.82
78902;DHT22;70441;44.758;37.686;2024-03-02T06:17:44;12.43;33.12
78902;DHT22;70441;44.758;37.686;2024-03-02T06:18:45;12.53;31.80
78902;DHT22;70441;44.758;37.686;2024-03-02T06:19:47;12.58;31.48
78902;DHT22;70441;44.758;37.686;2024-03-02T06:20:48;12.72;32.27
78902;DHT22;70441;44.758;37.686;2024-03-02T06:21:50;12.82;31.49
78902;DHT22;70441;44.758;37.686;2024-03-02T06:22:51;12.91;32.05
78902;DHT22;70441;44.758;37.686;2024-03-02T06:23:53;12.93;32.09
78902;DHT22;70441;44.758;37.686;2024-03-02T06:24:54;12.98;32.18
78902;DHT22;70441;44.758;37.686;2024-03-02T06:25:56;13.02;32.77
78902;DHT22;70441;44.758;37.686;2024-03-02T06:26:57;13.09;32.92
78902;DHT22;70441;44.758;37.686;2024-03-02T06:27:59;13.20;33.02
78902;DHT22;70441;44.758;37.686;2024-03-02T06:29:00;13.22;32.97
78902;DHT22;70441;44.758;37.686;2024-03-02T06:30:03;13.17;33.07
78902;DHT22;70441;44.758;37.686;2024-03-02T06:31:05;13.06;32.77
78902;DHT22;70441;44.758;37.686;2024-03-02T06:32:07;13.12;32.93
78902;DHT22;70441;44.758;37.686;2024-03-02T06:33:09;13.07;32.23